sensor_id;sensor_type;location;lat;lon;timestamp;temperature;humidity
64198;SHT31;50512;53.666;9.700;2023-07-09T00:00:02;18.55;76.05
64198;SHT31;50512;53.666;9.700;2023-07-09T00:02:29;18.59;76.51
64198;SHT31;50512;53.666;9.700;2023-07-09T00:04:56;18.53;76.21
64198;SHT31;50512;53.666;9.700;2023-07-09T00:07:27;18.48;76.84
64198;SHT31;50512;53.666;9.700;2023-07-09T00:09:54;18.55;76.51
64198;SHT31;50512;53.666;9.700;2023-07-09T00:12:21;18.48;76.26
64198;SHT31;50512;53.666;9.700;2023-07-09T00:14:47;18.47;77.06
64198;SHT31;50512;53.666;9.700;2023-07-09T00:17:19;18.42;76.67
64198;SHT31;50512;53.666;9.700;2023-07-09T00:19:47;18.37;76.57
64198;SHT31;50512;53.666;9.700;2023-07-09T00:22:15;18.27;76.82
64198;SHT31;50512;53.666;9.700;2023-07-09T00:24:49;18.31;76.99
64198;SHT31;50512;53.666;9.700;2023-07-09T00:27:17;18.28;76.90
64198;SHT31;50512;53.666;9.700;2023-07-09T00:29:44;18.28;76.81
64198;SHT31;50512;53.666;9.700;2023-07-09T00:32:12;18.35;76.86
64198;SHT31;50512;53.666;9.700;2023-07-09T00:34:40;18.25;76.42
64198;SHT31;50512;53.666;9.700;2023-07-09T00:37:10;18.35;76.37
64198;SHT31;50512;53.666;9.700;2023-07-09T00:39:37;18.35;76.46
64198;SHT31;50512;53.666;9.700;2023-07-09T00:42:12;18.25;76.73
64198;SHT31;50512;53.666;9.700;2023-07-09T00:44:43;18.20;76.36
64198;SHT31;50512;53.666;9.700;2023-07-09T00:47:30;18.24;76.69
64198;SHT31;50512;53.666;9.700;2023-07-09T00:50:06;18.25;75.96
64198;SHT31;50512;53.666;9.700;2023-07-09T00:52:49;18.35;75.74
64198;SHT31;50512;53.666;9.700;2023-07-09T00:55:19;18.32;75.45
64198;SHT31;50512;53.666;9.700;2023-07-09T00:57:49;18.30;76.03
64198;SHT31;50512;53.666;9.700;2023-07-09T01:00:23;18.28;75.95
64198;SHT31;50512;53.666;9.700;2023-07-09T01:02:53;18.25;75.52
64198;SHT31;50512;53.666;9.700;2023-07-09T01:05:20;18.31;75.97
64198;SHT31;50512;53.666;9.700;2023-07-09T01:07:47;18.27;75.38
64198;SHT31;50512;53.666;9.700;2023-07-09T01:10:15;18.11;75.23
64198;SHT31;50512;53.666;9.700;2023-07-09T01:12:42;18.17;75.39
64198;SHT31;50512;53.666;9.700;2023-07-09T01:15:11;18.20;75.58
64198;SHT31;50512;53.666;9.700;2023-07-09T01:17:40;18.24;75.18
64198;SHT31;50512;53.666;9.700;2023-07-09T01:20:16;18.17;74.88
64198;SHT31;50512;53.666;9.700;2023-07-09T01:22:47;18.25;74.30
64198;SHT31;50512;53.666;9.700;2023-07-09T01:25:15;18.25;74.75
64198;SHT31;50512;53.666;9.700;2023-07-09T01:27:46;18.10;74.89
64198;SHT31;50512;53.666;9.700;2023-07-09T01:30:15;18.10;75.01
64198;SHT31;50512;53.666;9.700;2023-07-09T01:32:42;18.10;74.63
64198;SHT31;50512;53.666;9.700;2023-07-09T01:35:12;18.07;74.81
64198;SHT31;50512;53.666;9.700;2023-07-09T01:37:40;18.11;74.51
64198;SHT31;50512;53.666;9.700;2023-07-09T01:40:11;18.11;74.40
64198;SHT31;50512;53.666;9.700;2023-07-09T01:42:38;18.06;74.55
64198;SHT31;50512;53.666;9.700;2023-07-09T01:45:07;18.06;73.63
64198;SHT31;50512;53.666;9.700;2023-07-09T01:47:35;18.07;73.98
64198;SHT31;50512;53.666;9.700;2023-07-09T01:50:02;18.06;74.09
64198;SHT31;50512;53.666;9.700;2023-07-09T01:52:30;18.01;74.30
64198;SHT31;50512;53.666;9.700;2023-07-09T01:54:57;18.04;74.09
64198;SHT31;50512;53.666;9.700;2023-07-09T01:57:27;18.00;73.80
64198;SHT31;50512;53.666;9.700;2023-07-09T01:59:59;18.04;73.49
64198;SHT31;50512;53.666;9.700;2023-07-09T02:02:26;17.93;73.92
64198;SHT31;50512;53.666;9.700;2023-07-09T02:04:54;17.91;73.93
64198;SHT31;50512;53.666;9.700;2023-07-09T02:07:23;17.91;73.89
64198;SHT31;50512;53.666;9.700;2023-07-09T02:09:50;17.94;74.13
64198;SHT31;50512;53.666;9.700;2023-07-09T02:12:18;17.91;74.35
64198;SHT31;50512;53.666;9.700;2023-07-09T02:14:46;17.91;73.89
64198;SHT31;50512;53.666;9.700;2023-07-09T02:17:14;17.98;73.58
64198;SHT31;50512;53.666;9.700;2023-07-09T02:19:41;17.87;73.92
64198;SHT31;50512;53.666;9.700;2023-07-09T02:22:07;17.96;73.08
64198;SHT31;50512;53.666;9.700;2023-07-09T02:24:34;17.97;73.02
64198;SHT31;50512;53.666;9.700;2023-07-09T02:27:03;17.94;73.59
64198;SHT31;50512;53.666;9.700;2023-07-09T02:29:30;17.89;73.39
64198;SHT31;50512;53.666;9.700;2023-07-09T02:32:00;17.83;73.18
64198;SHT31;50512;53.666;9.700;2023-07-09T02:34:27;17.82;73.36
64198;SHT31;50512;53.666;9.700;2023-07-09T02:36:56;17.76;73.29
64198;SHT31;50512;53.666;9.700;2023-07-09T02:39:23;17.69;73.96
64198;SHT31;50512;53.666;9.700;2023-07-09T02:41:50;17.72;73.50
64198;SHT31;50512;53.666;9.700;2023-07-09T02:44:17;17.69;73.58
64198;SHT31;50512;53.666;9.700;2023-07-09T02:46:45;17.62;73.74
64198;SHT31;50512;53.666;9.700;2023-07-09T02:49:13;17.59;73.43
64198;SHT31;50512;53.666;9.700;2023-07-09T02:51:40;17.56;73.95
64198;SHT31;50512;53.666;9.700;2023-07-09T02:54:07;17.56;73.83
64198;SHT31;50512;53.666;9.700;2023-07-09T02:56:34;17.53;74.13
64198;SHT31;50512;53.666;9.700;2023-07-09T02:59:01;17.55;73.64
64198;SHT31;50512;53.666;9.700;2023-07-09T03:01:27;17.49;73.72
64198;SHT31;50512;53.666;9.700;2023-07-09T03:03:54;17.45;73.43
64198;SHT31;50512;53.666;9.700;2023-07-09T03:06:24;17.51;73.45
64198;SHT31;50512;53.666;9.700;2023-07-09T03:08:50;17.55;73.06
64198;SHT31;50512;53.666;9.700;2023-07-09T03:11:18;17.56;72.55
64198;SHT31;50512;53.666;9.700;2023-07-09T03:13:45;17.58;72.82
64198;SHT31;50512;53.666;9.700;2023-07-09T03:16:13;17.59;73.22
64198;SHT31;50512;53.666;9.700;2023-07-09T03:18:40;17.52;72.87
64198;SHT31;50512;53.666;9.700;2023-07-09T03:21:06;17.49;73.37
64198;SHT31;50512;53.666;9.700;2023-07-09T03:23:34;17.36;73.56
64198;SHT31;50512;53.666;9.700;2023-07-09T03:26:01;17.34;73.42
64198;SHT31;50512;53.666;9.700;2023-07-09T03:28:29;17.39;73.61
64198;SHT31;50512;53.666;9.700;2023-07-09T03:30:56;17.35;73.13
64198;SHT31;50512;53.666;9.700;2023-07-09T03:33:23;17.36;73.14
64198;SHT31;50512;53.666;9.700;2023-07-09T03:35:50;17.39;72.98
64198;SHT31;50512;53.666;9.700;2023-07-09T03:38:16;17.35;72.81
64198;SHT31;50512;53.666;9.700;2023-07-09T03:40:44;17.39;73.39
64198;SHT31;50512;53.666;9.700;2023-07-09T03:43:11;17.38;73.46
64198;SHT31;50512;53.666;9.700;2023-07-09T03:45:37;17.32;73.15
64198;SHT31;50512;53.666;9.700;2023-07-09T03:48:05;17.36;72.98
64198;SHT31;50512;53.666;9.700;2023-07-09T03:50:32;17.27;73.48
64198;SHT31;50512;53.666;9.700;2023-07-09T03:52:58;17.31;73.55
64198;SHT31;50512;53.666;9.700;2023-07-09T03:55:25;17.31;73.38
64198;SHT31;50512;53.666;9.700;2023-07-09T03:57:53;17.28;72.92
64198;SHT31;50512;53.666;9.700;2023-07-09T04:00:20;17.32;73.22
64198;SHT31;50512;53.666;9.700;2023-07-09T04:02:47;17.36;72.62
64198;SHT31;50512;53.666;9.700;2023-07-09T04:05:13;17.41;73.20
64198;SHT31;50512;53.666;9.700;2023-07-09T04:07:40;17.38;73.01
64198;SHT31;50512;53.666;9.700;2023-07-09T04:10:07;17.42;72.43
64198;SHT31;50512;53.666;9.700;2023-07-09T04:12:33;17.39;72.40
64198;SHT31;50512;53.666;9.700;2023-07-09T04:15:04;17.39;72.16
64198;SHT31;50512;53.666;9.700;2023-07-09T04:17:31;17.48;72.74
64198;SHT31;50512;53.666;9.700;2023-07-09T04:19:57;17.41;72.25
64198;SHT31;50512;53.666;9.700;2023-07-09T04:22:23;17.43;72.41
64198;SHT31;50512;53.666;9.700;2023-07-09T04:24:50;17.41;72.74
64198;SHT31;50512;53.666;9.700;2023-07-09T04:27:17;17.39;72.96
64198;SHT31;50512;53.666;9.700;2023-07-09T04:29:44;17.36;73.09
64198;SHT31;50512;53.666;9.700;2023-07-09T04:32:14;17.42;72.62
64198;SHT31;50512;53.666;9.700;2023-07-09T04:34:41;17.43;72.57
64198;SHT31;50512;53.666;9.700;2023-07-09T04:37:09;17.45;72.55
64198;SHT31;50512;53.666;9.700;2023-07-09T04:39:36;17.46;72.66
64198;SHT31;50512;53.666;9.700;2023-07-09T04:42:04;17.53;72.25
64198;SHT31;50512;53.666;9.700;2023-07-09T04:44:31;17.62;71.23
64198;SHT31;50512;53.666;9.700;2023-07-09T04:46:57;17.70;71.06
64198;SHT31;50512;53.666;9.700;2023-07-09T04:49:25;17.82;71.25
64198;SHT31;50512;53.666;9.700;2023-07-09T04:51:51;17.90;70.87
64198;SHT31;50512;53.666;9.700;2023-07-09T04:54:18;17.96;71.04
64198;SHT31;50512;53.666;9.700;2023-07-09T04:56:47;18.03;69.87
64198;SHT31;50512;53.666;9.700;2023-07-09T04:59:14;18.14;70.09
64198;SHT31;50512;53.666;9.700;2023-07-09T05:01:40;18.27;69.41
64198;SHT31;50512;53.666;9.700;2023-07-09T05:04:07;18.40;68.94
64198;SHT31;50512;53.666;9.700;2023-07-09T05:06:35;18.51;68.26
64198;SHT31;50512;53.666;9.700;2023-07-09T05:09:01;18.59;68.48
64198;SHT31;50512;53.666;9.700;2023-07-09T05:11:28;18.69;67.87
64198;SHT31;50512;53.666;9.700;2023-07-09T05:13:54;18.75;67.31
64198;SHT31;50512;53.666;9.700;2023-07-09T05:16:20;18.83;67.86
64198;SHT31;50512;53.666;9.700;2023-07-09T05:18:48;18.93;67.16
64198;SHT31;50512;53.666;9.700;2023-07-09T05:21:14;19.02;67.37
64198;SHT31;50512;53.666;9.700;2023-07-09T05:23:42;19.11;66.48
64198;SHT31;50512;53.666;9.700;2023-07-09T05:26:09;19.14;66.80
64198;SHT31;50512;53.666;9.700;2023-07-09T05:28:35;19.25;66.50
64198;SHT31;50512;53.666;9.700;2023-07-09T05:31:02;19.36;66.01
64198;SHT31;50512;53.666;9.700;2023-07-09T05:33:29;19.45;64.56
64198;SHT31;50512;53.666;9.700;2023-07-09T05:35:56;19.52;63.75
64198;SHT31;50512;53.666;9.700;2023-07-09T05:38:22;19.71;65.33
64198;SHT31;50512;53.666;9.700;2023-07-09T05:40:59;19.83;63.94
64198;SHT31;50512;53.666;9.700;2023-07-09T05:43:26;19.94;63.93
64198;SHT31;50512;53.666;9.700;2023-07-09T05:45:52;20.12;63.01
64198;SHT31;50512;53.666;9.700;2023-07-09T05:48:19;20.30;63.38
64198;SHT31;50512;53.666;9.700;2023-07-09T05:50:45;20.44;63.03
64198;SHT31;50512;53.666;9.700;2023-07-09T05:53:11;20.47;62.84
64198;SHT31;50512;53.666;9.700;2023-07-09T05:55:38;20.65;62.36
64198;SHT31;50512;53.666;9.700;2023-07-09T05:58:06;20.65;61.90
64198;SHT31;50512;53.666;9.700;2023-07-09T06:00:32;20.71;62.25
64198;SHT31;50512;53.666;9.700;2023-07-09T06:02:58;20.85;61.71
64198;SHT31;50512;53.666;9.700;2023-07-09T06:05:27;20.92;61.32
64198;SHT31;50512;53.666;9.700;2023-07-09T06:07:54;21.06;60.78
64198;SHT31;50512;53.666;9.700;2023-07-09T06:10:21;21.02;60.86
64198;SHT31;50512;53.666;9.700;2023-07-09T06:12:47;21.17;61.27
64198;SHT31;50512;53.666;9.700;2023-07-09T06:15:16;21.27;61.52
64198;SHT31;50512;53.666;9.700;2023-07-09T06:17:43;21.17;62.09
64198;SHT31;50512;53.666;9.700;2023-07-09T06:20:09;21.20;60.47
64198;SHT31;50512;53.666;9.700;2023-07-09T06:22:36;21.27;60.96
64198;SHT31;50512;53.666;9.700;2023-07-09T06:25:03;21.43;61.16
64198;SHT31;50512;53.666;9.700;2023-07-09T06:27:29;21.35;60.70
64198;SHT31;50512;53.666;9.700;2023-07-09T06:29:56;21.45;61.43
64198;SHT31;50512;53.666;9.700;2023-07-09T06:32:24;21.41;60.94
64198;SHT31;50512;53.666;9.700;2023-07-09T06:34:51;21.48;61.29
64198;SHT31;50512;53.666;9.700;2023-07-09T06:37:17;21.35;59.81
64198;SHT31;50512;53.666;9.700;2023-07-09T06:39:44;21.54;61.61
64198;SHT31;50512;53.666;9.700;2023-07-09T06:42:10;21.69;60.51
64198;SHT31;50512;53.666;9.700;2023-07-09T06:44:37;21.77;60.52
64198;SHT31;50512;53.666;9.700;2023-07-09T06:47:04;21.85;59.86
64198;SHT31;50512;53.666;9.700;2023-07-09T06:49:31;21.93;61.06
64198;SHT31;50512;53.666;9.700;2023-07-09T06:51:58;21.93;59.61
64198;SHT31;50512;53.666;9.700;2023-07-09T06:54:25;22.12;59.92
64198;SHT31;50512;53.666;9.700;2023-07-09T06:56:51;22.41;60.33
64198;SHT31;50512;53.666;9.700;2023-07-09T06:59:17;22.68;60.07
64198;SHT31;50512;53.666;9.700;2023-07-09T07:01:44;22.63;58.78
64198;SHT31;50512;53.666;9.700;2023-07-09T07:04:10;22.81;58.24
64198;SHT31;50512;53.666;9.700;2023-07-09T07:06:38;22.84;58.69
64198;SHT31;50512;53.666;9.700;2023-07-09T07:09:05;22.65;58.82
64198;SHT31;50512;53.666;9.700;2023-07-09T07:11:31;22.99;58.83
64198;SHT31;50512;53.666;9.700;2023-07-09T07:13:57;23.05;58.53
64198;SHT31;50512;53.666;9.700;2023-07-09T07:16:24;23.15;56.83
64198;SHT31;50512;53.666;9.700;2023-07-09T07:18:50;23.05;57.45
64198;SHT31;50512;53.666;9.700;2023-07-09T07:21:17;23.13;58.22
64198;SHT31;50512;53.666;9.700;2023-07-09T07:23:44;23.29;57.98
64198;SHT31;50512;53.666;9.700;2023-07-09T07:26:11;23.49;58.14
64198;SHT31;50512;53.666;9.700;2023-07-09T07:28:37;23.47;57.80
64198;SHT31;50512;53.666;9.700;2023-07-09T07:31:06;23.50;57.29
64198;SHT31;50512;53.666;9.700;2023-07-09T07:33:33;23.75;58.37
64198;SHT31;50512;53.666;9.700;2023-07-09T07:35:59;23.91;56.23
64198;SHT31;50512;53.666;9.700;2023-07-09T07:38:26;24.33;55.58
64198;SHT31;50512;53.666;9.700;2023-07-09T07:40:53;24.49;55.55
64198;SHT31;50512;53.666;9.700;2023-07-09T07:43:20;25.08;54.75
64198;SHT31;50512;53.666;9.700;2023-07-09T07:45:47;25.25;54.33
64198;SHT31;50512;53.666;9.700;2023-07-09T07:48:14;25.19;52.84
64198;SHT31;50512;53.666;9.700;2023-07-09T07:50:40;25.33;53.56
64198;SHT31;50512;53.666;9.700;2023-07-09T07:53:07;26.14;51.43
64198;SHT31;50512;53.666;9.700;2023-07-09T07:55:34;26.53;51.06
64198;SHT31;50512;53.666;9.700;2023-07-09T07:58:03;26.29;53.37
64198;SHT31;50512;53.666;9.700;2023-07-09T08:00:29;26.02;52.53
64198;SHT31;50512;53.666;9.700;2023-07-09T08:02:56;26.04;51.89
64198;SHT31;50512;53.666;9.700;2023-07-09T08:05:22;26.04;51.94
64198;SHT31;50512;53.666;9.700;2023-07-09T08:07:49;26.22;53.24
64198;SHT31;50512;53.666;9.700;2023-07-09T08:10:16;26.40;52.17
64198;SHT31;50512;53.666;9.700;2023-07-09T08:12:43;26.57;53.19
64198;SHT31;50512;53.666;9.700;2023-07-09T08:15:11;26.46;50.76
64198;SHT31;50512;53.666;9.700;2023-07-09T08:17:38;27.00;50.09
64198;SHT31;50512;53.666;9.700;2023-07-09T08:20:06;27.02;48.60
64198;SHT31;50512;53.666;9.700;2023-07-09T08:22:32;27.15;50.15
64198;SHT31;50512;53.666;9.700;2023-07-09T08:24:59;27.31;49.54
64198;SHT31;50512;53.666;9.700;2023-07-09T08:27:25;26.59;50.10
64198;SHT31;50512;53.666;9.700;2023-07-09T08:29:52;26.82;51.87
64198;SHT31;50512;53.666;9.700;2023-07-09T08:32:19;27.27;51.75
64198;SHT31;50512;53.666;9.700;2023-07-09T08:34:46;27.25;50.44
64198;SHT31;50512;53.666;9.700;2023-07-09T08:37:12;27.35;49.77
64198;SHT31;50512;53.666;9.700;2023-07-09T08:39:39;27.73;49.55
64198;SHT31;50512;53.666;9.700;2023-07-09T08:42:09;27.31;49.03
64198;SHT31;50512;53.666;9.700;2023-07-09T08:44:53;27.53;51.24
64198;SHT31;50512;53.666;9.700;2023-07-09T08:47:33;27.55;49.77
64198;SHT31;50512;53.666;9.700;2023-07-09T08:50:03;28.05;49.88
64198;SHT31;50512;53.666;9.700;2023-07-09T08:52:32;27.86;48.67
64198;SHT31;50512;53.666;9.700;2023-07-09T08:55:05;27.28;49.98
64198;SHT31;50512;53.666;9.700;2023-07-09T08:57:35;27.12;50.68
64198;SHT31;50512;53.666;9.700;2023-07-09T09:00:07;27.02;50.93
64198;SHT31;50512;53.666;9.700;2023-07-09T09:02:45;27.24;53.72
64198;SHT31;50512;53.666;9.700;2023-07-09T09:05:17;27.60;50.47
64198;SHT31;50512;53.666;9.700;2023-07-09T09:07:49;27.63;50.89
64198;SHT31;50512;53.666;9.700;2023-07-09T09:10:21;27.91;49.94
64198;SHT31;50512;53.666;9.700;2023-07-09T09:12:59;28.17;49.49
64198;SHT31;50512;53.666;9.700;2023-07-09T09:15:30;27.65;50.16
64198;SHT31;50512;53.666;9.700;2023-07-09T09:18:17;27.83;51.02
64198;SHT31;50512;53.666;9.700;2023-07-09T09:20:47;28.22;51.71
64198;SHT31;50512;53.666;9.700;2023-07-09T09:23:15;28.62;51.86
64198;SHT31;50512;53.666;9.700;2023-07-09T09:25:47;28.53;50.42
64198;SHT31;50512;53.666;9.700;2023-07-09T09:28:15;28.03;50.62
64198;SHT31;50512;53.666;9.700;2023-07-09T09:30:42;28.22;50.85
64198;SHT31;50512;53.666;9.700;2023-07-09T09:33:11;28.11;50.19
64198;SHT31;50512;53.666;9.700;2023-07-09T09:35:39;28.39;49.78
64198;SHT31;50512;53.666;9.700;2023-07-09T09:38:10;28.46;49.42
64198;SHT31;50512;53.666;9.700;2023-07-09T09:40:37;28.62;50.43
64198;SHT31;50512;53.666;9.700;2023-07-09T09:43:11;29.17;50.53
64198;SHT31;50512;53.666;9.700;2023-07-09T09:45:39;28.69;48.29
64198;SHT31;50512;53.666;9.700;2023-07-09T09:48:14;28.90;48.67
64198;SHT31;50512;53.666;9.700;2023-07-09T09:50:41;28.60;48.47
64198;SHT31;50512;53.666;9.700;2023-07-09T09:53:08;28.62;49.68
64198;SHT31;50512;53.666;9.700;2023-07-09T09:55:38;28.69;51.44
64198;SHT31;50512;53.666;9.700;2023-07-09T09:58:12;28.69;48.65
64198;SHT31;50512;53.666;9.700;2023-07-09T10:00:39;28.90;49.50
64198;SHT31;50512;53.666;9.700;2023-07-09T10:03:06;29.07;49.17
64198;SHT31;50512;53.666;9.700;2023-07-09T10:05:38;29.25;49.83
64198;SHT31;50512;53.666;9.700;2023-07-09T10:08:08;29.55;47.40
64198;SHT31;50512;53.666;9.700;2023-07-09T10:10:36;29.30;49.11
64198;SHT31;50512;53.666;9.700;2023-07-09T10:13:09;29.54;48.12
64198;SHT31;50512;53.666;9.700;2023-07-09T10:15:41;29.66;48.80
64198;SHT31;50512;53.666;9.700;2023-07-09T10:18:21;29.79;49.57
64198;SHT31;50512;53.666;9.700;2023-07-09T10:21:03;29.28;48.19
64198;SHT31;50512;53.666;9.700;2023-07-09T10:23:36;29.41;49.12
64198;SHT31;50512;53.666;9.700;2023-07-09T10:26:10;29.73;49.26
64198;SHT31;50512;53.666;9.700;2023-07-09T10:29:00;29.32;47.95
64198;SHT31;50512;53.666;9.700;2023-07-09T10:31:37;29.56;48.78
64198;SHT31;50512;53.666;9.700;2023-07-09T10:34:16;29.97;48.65
64198;SHT31;50512;53.666;9.700;2023-07-09T10:36:58;30.11;47.42
64198;SHT31;50512;53.666;9.700;2023-07-09T10:39:31;30.16;48.61
64198;SHT31;50512;53.666;9.700;2023-07-09T10:42:00;29.42;46.31
64198;SHT31;50512;53.666;9.700;2023-07-09T10:44:30;29.89;47.00
64198;SHT31;50512;53.666;9.700;2023-07-09T10:47:02;29.86;45.60
64198;SHT31;50512;53.666;9.700;2023-07-09T10:49:32;30.00;47.10
64198;SHT31;50512;53.666;9.700;2023-07-09T10:52:05;30.13;46.33
64198;SHT31;50512;53.666;9.700;2023-07-09T10:54:35;30.16;46.46
64198;SHT31;50512;53.666;9.700;2023-07-09T10:57:09;30.02;47.05
64198;SHT31;50512;53.666;9.700;2023-07-09T10:59:40;30.42;46.61
64198;SHT31;50512;53.666;9.700;2023-07-09T11:02:15;30.40;44.61
64198;SHT31;50512;53.666;9.700;2023-07-09T11:04:47;30.25;45.81
64198;SHT31;50512;53.666;9.700;2023-07-09T11:07:19;30.61;45.97
64198;SHT31;50512;53.666;9.700;2023-07-09T11:09:47;30.24;44.87
64198;SHT31;50512;53.666;9.700;2023-07-09T11:12:20;30.04;44.92
64198;SHT31;50512;53.666;9.700;2023-07-09T11:14:51;30.37;46.55
64198;SHT31;50512;53.666;9.700;2023-07-09T11:17:20;30.79;44.63
64198;SHT31;50512;53.666;9.700;2023-07-09T11:19:49;30.44;43.87
64198;SHT31;50512;53.666;9.700;2023-07-09T11:22:23;30.69;45.26
64198;SHT31;50512;53.666;9.700;2023-07-09T11:24:51;30.49;43.19
64198;SHT31;50512;53.666;9.700;2023-07-09T11:27:21;30.86;43.45
64198;SHT31;50512;53.666;9.700;2023-07-09T11:29:55;31.16;44.95
64198;SHT31;50512;53.666;9.700;2023-07-09T11:32:22;30.92;44.23
64198;SHT31;50512;53.666;9.700;2023-07-09T11:34:48;31.06;44.60
64198;SHT31;50512;53.666;9.700;2023-07-09T11:37:16;31.30;44.62
64198;SHT31;50512;53.666;9.700;2023-07-09T11:39:46;30.93;45.56
64198;SHT31;50512;53.666;9.700;2023-07-09T11:42:27;30.89;43.95
64198;SHT31;50512;53.666;9.700;2023-07-09T11:45:01;30.92;42.16
64198;SHT31;50512;53.666;9.700;2023-07-09T11:47:33;31.06;43.42
64198;SHT31;50512;53.666;9.700;2023-07-09T11:50:02;31.45;42.31
64198;SHT31;50512;53.666;9.700;2023-07-09T11:52:33;31.17;42.55
64198;SHT31;50512;53.666;9.700;2023-07-09T11:55:19;31.17;41.49
64198;SHT31;50512;53.666;9.700;2023-07-09T11:57:47;31.34;42.84
64198;SHT31;50512;53.666;9.700;2023-07-09T12:00:15;31.33;43.78
64198;SHT31;50512;53.666;9.700;2023-07-09T12:02:41;31.51;41.66
64198;SHT31;50512;53.666;9.700;2023-07-09T12:05:09;31.67;38.35
64198;SHT31;50512;53.666;9.700;2023-07-09T12:07:36;31.55;40.03
64198;SHT31;50512;53.666;9.700;2023-07-09T12:10:14;31.72;39.52
64198;SHT31;50512;53.666;9.700;2023-07-09T12:12:45;31.69;38.69
64198;SHT31;50512;53.666;9.700;2023-07-09T12:15:16;31.42;39.65
64198;SHT31;50512;53.666;9.700;2023-07-09T12:17:52;31.26;39.44
64198;SHT31;50512;53.666;9.700;2023-07-09T12:20:19;31.12;40.88
64198;SHT31;50512;53.666;9.700;2023-07-09T12:22:46;31.21;41.18
64198;SHT31;50512;53.666;9.700;2023-07-09T12:25:19;31.17;40.99
64198;SHT31;50512;53.666;9.700;2023-07-09T12:27:48;31.04;41.24
64198;SHT31;50512;53.666;9.700;2023-07-09T12:30:15;31.12;42.43
64198;SHT31;50512;53.666;9.700;2023-07-09T12:32:45;31.38;42.05
64198;SHT31;50512;53.666;9.700;2023-07-09T12:35:15;31.58;41.50
64198;SHT31;50512;53.666;9.700;2023-07-09T12:37:42;31.44;39.49
64198;SHT31;50512;53.666;9.700;2023-07-09T12:40:14;31.51;39.54
64198;SHT31;50512;53.666;9.700;2023-07-09T12:42:43;31.27;38.61
64198;SHT31;50512;53.666;9.700;2023-07-09T12:45:16;31.33;39.79
64198;SHT31;50512;53.666;9.700;2023-07-09T12:47:44;31.58;41.00
64198;SHT31;50512;53.666;9.700;2023-07-09T12:50:19;31.35;38.44
64198;SHT31;50512;53.666;9.700;2023-07-09T12:52:47;31.34;40.00
64198;SHT31;50512;53.666;9.700;2023-07-09T12:55:21;31.79;39.23
64198;SHT31;50512;53.666;9.700;2023-07-09T12:57:48;32.17;39.69
64198;SHT31;50512;53.666;9.700;2023-07-09T13:00:17;31.82;36.01
64198;SHT31;50512;53.666;9.700;2023-07-09T13:02:44;31.96;38.39
64198;SHT31;50512;53.666;9.700;2023-07-09T13:05:18;31.47;38.86
64198;SHT31;50512;53.666;9.700;2023-07-09T13:07:48;32.10;38.65
64198;SHT31;50512;53.666;9.700;2023-07-09T13:10:18;32.26;37.78
64198;SHT31;50512;53.666;9.700;2023-07-09T13:12:46;31.90;36.77
64198;SHT31;50512;53.666;9.700;2023-07-09T13:15:26;31.54;37.50
64198;SHT31;50512;53.666;9.700;2023-07-09T13:17:58;31.75;40.55
64198;SHT31;50512;53.666;9.700;2023-07-09T13:20:26;32.02;38.67
64198;SHT31;50512;53.666;9.700;2023-07-09T13:22:52;32.33;40.50
64198;SHT31;50512;53.666;9.700;2023-07-09T13:25:19;32.14;37.61
64198;SHT31;50512;53.666;9.700;2023-07-09T13:27:45;32.19;39.99
64198;SHT31;50512;53.666;9.700;2023-07-09T13:30:12;32.50;40.10
64198;SHT31;50512;53.666;9.700;2023-07-09T13:32:39;32.57;40.02
64198;SHT31;50512;53.666;9.700;2023-07-09T13:35:12;32.30;39.19
64198;SHT31;50512;53.666;9.700;2023-07-09T13:37:39;32.14;38.60
64198;SHT31;50512;53.666;9.700;2023-07-09T13:40:08;32.12;38.48
64198;SHT31;50512;53.666;9.700;2023-07-09T13:42:35;31.99;38.86
64198;SHT31;50512;53.666;9.700;2023-07-09T13:45:02;31.72;38.75
64198;SHT31;50512;53.666;9.700;2023-07-09T13:47:29;31.71;40.15
64198;SHT31;50512;53.666;9.700;2023-07-09T13:49:56;31.81;39.78
64198;SHT31;50512;53.666;9.700;2023-07-09T13:52:23;31.84;39.73
64198;SHT31;50512;53.666;9.700;2023-07-09T13:54:51;31.89;40.50
64198;SHT31;50512;53.666;9.700;2023-07-09T13:57:20;32.12;38.79
64198;SHT31;50512;53.666;9.700;2023-07-09T13:59:47;32.17;37.98
64198;SHT31;50512;53.666;9.700;2023-07-09T14:02:20;31.95;38.32
64198;SHT31;50512;53.666;9.700;2023-07-09T14:04:48;32.02;37.09
64198;SHT31;50512;53.666;9.700;2023-07-09T14:07:25;31.82;37.33
64198;SHT31;50512;53.666;9.700;2023-07-09T14:09:52;31.89;38.41
64198;SHT31;50512;53.666;9.700;2023-07-09T14:12:19;32.02;38.25
64198;SHT31;50512;53.666;9.700;2023-07-09T14:14:51;31.90;38.37
64198;SHT31;50512;53.666;9.700;2023-07-09T14:17:19;31.74;38.13
64198;SHT31;50512;53.666;9.700;2023-07-09T14:19:47;31.88;37.55
64198;SHT31;50512;53.666;9.700;2023-07-09T14:22:25;31.97;39.61
64198;SHT31;50512;53.666;9.700;2023-07-09T14:24:52;32.10;38.89
64198;SHT31;50512;53.666;9.700;2023-07-09T14:27:19;32.12;38.68
64198;SHT31;50512;53.666;9.700;2023-07-09T14:29:45;31.82;38.92
64198;SHT31;50512;53.666;9.700;2023-07-09T14:32:30;32.02;39.66
64198;SHT31;50512;53.666;9.700;2023-07-09T14:34:57;32.12;36.90
64198;SHT31;50512;53.666;9.700;2023-07-09T14:37:25;31.99;36.69
64198;SHT31;50512;53.666;9.700;2023-07-09T14:39:52;32.14;38.72
64198;SHT31;50512;53.666;9.700;2023-07-09T14:42:18;32.14;38.07
64198;SHT31;50512;53.666;9.700;2023-07-09T14:44:47;32.33;36.97
64198;SHT31;50512;53.666;9.700;2023-07-09T14:47:16;32.33;38.55
64198;SHT31;50512;53.666;9.700;2023-07-09T14:49:42;32.23;37.52
64198;SHT31;50512;53.666;9.700;2023-07-09T14:52:11;32.36;37.48
64198;SHT31;50512;53.666;9.700;2023-07-09T14:54:40;32.22;35.52
64198;SHT31;50512;53.666;9.700;2023-07-09T14:57:08;32.47;36.92
64198;SHT31;50512;53.666;9.700;2023-07-09T14:59:42;32.64;37.40
64198;SHT31;50512;53.666;9.700;2023-07-09T15:02:22;32.61;36.64
64198;SHT31;50512;53.666;9.700;2023-07-09T15:04:50;32.10;35.03
64198;SHT31;50512;53.666;9.700;2023-07-09T15:07:16;32.19;36.09
64198;SHT31;50512;53.666;9.700;2023-07-09T15:09:44;32.13;36.43
64198;SHT31;50512;53.666;9.700;2023-07-09T15:12:17;32.13;36.82
64198;SHT31;50512;53.666;9.700;2023-07-09T15:14:44;32.29;37.09
64198;SHT31;50512;53.666;9.700;2023-07-09T15:17:11;32.26;37.00
64198;SHT31;50512;53.666;9.700;2023-07-09T15:19:38;31.97;37.01
64198;SHT31;50512;53.666;9.700;2023-07-09T15:22:05;32.03;37.01
64198;SHT31;50512;53.666;9.700;2023-07-09T15:24:36;31.88;37.20
64198;SHT31;50512;53.666;9.700;2023-07-09T15:27:05;31.97;37.22
64198;SHT31;50512;53.666;9.700;2023-07-09T15:29:31;31.84;37.58
64198;SHT31;50512;53.666;9.700;2023-07-09T15:31:58;31.86;37.98
64198;SHT31;50512;53.666;9.700;2023-07-09T15:34:24;31.85;36.86
64198;SHT31;50512;53.666;9.700;2023-07-09T15:36:51;31.79;37.10
64198;SHT31;50512;53.666;9.700;2023-07-09T15:39:20;31.72;36.86